Time;durP1;ratioP1;P1;durP2;ratioP2;P2;SDS_P1;SDS_P2;PMS_P1;PMS_P2;Temp;Humidity;BMP_temperature;BMP_pressure;BME280_temperature;BME280_humidity;BME280_pressure;Samples;Min_cycle;Max_cycle;Signal;HPM_P1;HPM_P2
2021/08/22 00:00:51;;;;;;;1.60;1.50;;;20.50;63.50;;;;;;5015761;28;20625;-80
2021/08/22 00:03:20;;;;;;;1.60;1.50;;;20.50;63.40;;;;;;5031681;28;20171;-80
2021/08/22 00:05:46;;;;;;;1.73;1.63;;;20.60;63.50;;;;;;5083062;28;20549;-81
2021/08/22 00:08:13;;;;;;;1.52;1.38;;;20.50;63.40;;;;;;5014565;28;20171;-81
2021/08/22 00:10:39;;;;;;;1.95;1.77;;;20.50;63.40;;;;;;5031074;28;20155;-80
2021/08/22 00:13:05;;;;;;;1.60;1.50;;;20.50;63.50;;;;;;5031425;28;20257;-80
2021/08/22 00:15:31;;;;;;;2.08;1.83;;;20.60;63.50;;;;;;5044444;28;20222;-81
2021/08/22 00:17:57;;;;;;;1.60;1.50;;;20.50;63.50;;;;;;5034275;28;20237;-81
2021/08/22 00:20:26;;;;;;;1.83;1.40;;;20.50;63.50;;;;;;5052399;28;20155;-79
2021/08/22 00:22:56;;;;;;;1.70;1.60;;;20.50;63.40;;;;;;5017230;28;20182;-81
2021/08/22 00:25:26;;;;;;;1.98;1.67;;;20.50;63.60;;;;;;5102647;28;20541;-81
2021/08/22 00:27:56;;;;;;;1.70;1.60;;;20.60;63.70;;;;;;5068864;28;20651;-80
2021/08/22 00:30:22;;;;;;;1.88;1.70;;;20.50;63.50;;;;;;5069231;28;20607;-81
2021/08/22 00:32:48;;;;;;;1.70;1.60;;;20.50;63.50;;;;;;5017950;28;20578;-82
2021/08/22 00:35:14;;;;;;;1.63;1.52;;;20.60;63.50;;;;;;5034688;28;20154;-81
2021/08/22 00:37:40;;;;;;;2.15;1.92;;;20.50;63.50;;;;;;5037539;28;20246;-81
2021/08/22 00:40:07;;;;;;;1.70;1.60;;;20.50;63.50;;;;;;5037132;28;20197;-81
2021/08/22 00:42:33;;;;;;;1.48;1.38;;;20.50;63.50;;;;;;5037455;28;20147;-81
2021/08/22 00:45:00;;;;;;;1.60;1.50;;;20.50;63.50;;;;;;5038027;28;20237;-81
2021/08/22 00:47:30;;;;;;;1.50;1.40;;;20.50;63.50;;;;;;5055510;28;20154;-80
2021/08/22 00:50:00;;;;;;;1.60;1.50;;;20.50;63.50;;;;;;5106387;28;20210;-81
2021/08/22 00:52:27;;;;;;;1.60;1.48;;;20.50;63.60;;;;;;5089788;28;20174;-81
2021/08/22 00:54:53;;;;;;;1.70;1.60;;;20.50;63.80;;;;;;5037123;28;20282;-81
2021/08/22 00:57:25;;;;;;;1.63;1.52;;;20.50;63.70;;;;;;5020629;28;20210;-81
2021/08/22 00:59:55;;;;;;;1.73;1.63;;;20.50;63.60;;;;;;5089005;28;20656;-81
2021/08/22 01:02:29;;;;;;;1.60;1.50;;;20.50;63.60;;;;;;5089377;28;20177;-80
2021/08/22 01:05:12;;;;;;;1.92;1.65;;;20.50;63.60;;;;;;5106252;28;20182;-80
2021/08/22 01:07:49;;;;;;;1.52;1.40;;;20.50;63.60;;;;;;5101627;28;20209;-80
2021/08/22 01:10:18;;;;;;;1.48;1.38;;;20.40;63.60;;;;;;5105419;28;20209;-81
2021/08/22 01:12:48;;;;;;;1.48;1.38;;;20.40;63.50;;;;;;5037109;28;20162;-81
2021/08/22 01:15:13;;;;;;;1.98;1.75;;;20.50;63.50;;;;;;5033665;28;20604;-82
2021/08/22 01:17:45;;;;;;;1.67;1.58;;;20.50;63.50;;;;;;5034358;28;20209;-82
2021/08/22 01:20:20;;;;;;;2.00;1.60;;;20.50;64.20;;;;;;5035333;28;20162;-80
2021/08/22 01:22:51;;;;;;;1.83;1.70;;;20.50;64.10;;;;;;5035205;28;20169;-80
2021/08/22 01:25:17;;;;;;;1.50;1.40;;;20.50;63.60;;;;;;5085710;28;20232;-80
2021/08/22 01:27:47;;;;;;;1.60;1.50;;;20.50;63.60;;;;;;5017039;28;20167;-81
2021/08/22 01:30:13;;;;;;;1.60;1.50;;;20.40;63.70;;;;;;5016266;28;20187;-80
2021/08/22 01:32:45;;;;;;;1.75;1.65;;;20.50;63.50;;;;;;5033218;28;20631;-81
2021/08/22 01:35:13;;;;;;;1.60;1.50;;;20.50;63.70;;;;;;5085213;28;20187;-81
2021/08/22 01:37:44;;;;;;;1.55;1.42;;;20.40;63.80;;;;;;5032866;28;20202;-81
2021/08/22 01:40:10;;;;;;;1.65;1.55;;;20.40;63.70;;;;;;5015956;28;20207;-81
2021/08/22 01:42:38;;;;;;;1.60;1.50;;;20.40;63.80;;;;;;5016442;28;20197;-82
2021/08/22 01:45:05;;;;;;;1.50;1.40;;;20.40;63.80;;;;;;5033388;28;20230;-80
2021/08/22 01:47:37;;;;;;;2.15;1.65;;;20.40;63.80;;;;;;5031816;28;20300;-81
2021/08/22 01:50:04;;;;;;;1.80;1.70;;;20.40;63.90;;;;;;5084540;28;20182;-80
2021/08/22 01:52:35;;;;;;;1.45;1.35;;;20.40;64.00;;;;;;5032726;28;20538;-81
2021/08/22 01:55:03;;;;;;;1.48;1.38;;;20.40;63.80;;;;;;5085147;28;20645;-80
2021/08/22 01:57:29;;;;;;;1.60;1.50;;;20.40;63.80;;;;;;5033350;28;20224;-81
2021/08/22 01:59:56;;;;;;;1.73;1.63;;;20.40;63.80;;;;;;5032906;28;20599;-80
2021/08/22 02:02:21;;;;;;;1.48;1.38;;;20.50;63.70;;;;;;5016865;28;20178;-80
2021/08/22 02:04:51;;;;;;;1.73;1.63;;;20.40;63.80;;;;;;5032888;28;20163;-80
2021/08/22 02:07:18;;;;;;;1.48;1.38;;;20.40;63.80;;;;;;5032512;28;20151;-81
2021/08/22 02:10:06;;;;;;;1.73;1.63;;;20.40;63.80;;;;;;5033788;28;20155;-80
2021/08/22 02:12:32;;;;;;;1.55;1.45;;;20.40;63.80;;;;;;5018895;28;20174;-80
2021/08/22 02:15:06;;;;;;;1.73;1.63;;;20.40;63.90;;;;;;5015908;28;20259;-80
2021/08/22 02:17:40;;;;;;;1.73;1.52;;;20.40;63.90;;;;;;5033904;28;20204;-81
2021/08/22 02:20:06;;;;;;;2.28;1.60;;;20.40;63.90;;;;;;5033643;28;20498;-81
2021/08/22 02:22:41;;;;;;;1.50;1.40;;;20.40;63.80;;;;;;5032305;28;20156;-81
2021/08/22 02:25:08;;;;;;;1.75;1.63;;;20.30;63.80;;;;;;5016233;28;20267;-80
2021/08/22 02:27:38;;;;;;;2.00;1.80;;;20.40;64.00;;;;;;5032432;28;20171;-80
2021/08/22 02:30:05;;;;;;;1.50;1.40;;;20.30;63.80;;;;;;5084400;28;20193;-81
2021/08/22 02:32:31;;;;;;;1.45;1.35;;;20.40;64.00;;;;;;5032662;28;20167;-80
2021/08/22 02:34:56;;;;;;;1.80;1.50;;;20.30;63.80;;;;;;5031982;28;20185;-80
2021/08/22 02:37:23;;;;;;;1.50;1.40;;;20.30;63.90;;;;;;5032427;28;20662;-81
2021/08/22 02:39:53;;;;;;;1.60;1.50;;;20.40;64.00;;;;;;5015562;28;20530;-81
2021/08/22 02:42:23;;;;;;;1.70;1.60;;;20.30;63.90;;;;;;5083968;28;20599;-82
2021/08/22 02:44:49;;;;;;;1.70;1.60;;;20.40;64.00;;;;;;5067454;28;20524;-80
2021/08/22 02:47:19;;;;;;;1.60;1.50;;;20.40;64.00;;;;;;5033619;28;20545;-80
2021/08/22 02:49:45;;;;;;;1.63;1.50;;;20.40;64.00;;;;;;5100602;28;20665;-81
2021/08/22 02:52:12;;;;;;;1.52;1.42;;;20.40;64.00;;;;;;5032245;28;20166;-80
2021/08/22 02:54:38;;;;;;;1.73;1.63;;;20.40;63.80;;;;;;5031998;28;20634;-81
2021/08/22 02:57:04;;;;;;;1.85;1.50;;;20.30;63.90;;;;;;5032241;28;20738;-81
2021/08/22 02:59:30;;;;;;;1.70;1.60;;;20.40;63.90;;;;;;5031840;28;20161;-81
2021/08/22 03:02:00;;;;;;;1.60;1.50;;;20.40;64.00;;;;;;5033682;28;20147;-81
2021/08/22 03:04:26;;;;;;;1.65;1.55;;;20.40;64.00;;;;;;5100538;28;20269;-80
2021/08/22 03:06:52;;;;;;;1.90;1.50;;;20.40;64.30;;;;;;5015230;28;20174;-79
2021/08/22 03:09:18;;;;;;;1.60;1.50;;;20.40;64.10;;;;;;5015061;28;20167;-81
2021/08/22 03:11:48;;;;;;;2.33;1.40;;;20.40;63.90;;;;;;5031701;28;20637;-80
2021/08/22 03:14:14;;;;;;;1.42;1.23;;;20.40;63.90;;;;;;5015790;28;20668;-80
2021/08/22 03:16:45;;;;;;;1.30;1.20;;;20.40;63.90;;;;;;5052661;28;20186;-80
2021/08/22 03:19:11;;;;;;;1.80;1.70;;;20.40;64.10;;;;;;5108596;28;20192;-79
2021/08/22 03:21:44;;;;;;;1.60;1.50;;;20.30;64.00;;;;;;5038294;28;20154;-80
2021/08/22 03:24:15;;;;;;;1.60;1.50;;;20.30;63.90;;;;;;5090632;28;20207;-80
2021/08/22 03:26:45;;;;;;;1.85;1.50;;;20.30;64.10;;;;;;5073133;28;20241;-81
2021/08/22 03:29:11;;;;;;;1.58;1.45;;;20.30;64.00;;;;;;5021900;28;20517;-79
2021/08/22 03:31:37;;;;;;;1.67;1.58;;;20.40;64.00;;;;;;5037579;28;20170;-80
2021/08/22 03:34:08;;;;;;;1.30;1.20;;;20.40;64.00;;;;;;5038872;28;20170;-80
2021/08/22 03:36:36;;;;;;;1.80;1.60;;;20.30;64.00;;;;;;5088746;28;20302;-80
2021/08/22 03:39:03;;;;;;;2.17;1.52;;;20.40;64.20;;;;;;5020289;28;20162;-80
2021/08/22 03:41:30;;;;;;;1.88;1.58;;;20.40;64.10;;;;;;5036694;28;20189;-82
2021/08/22 03:43:56;;;;;;;1.42;1.33;;;20.30;64.10;;;;;;5036606;28;20159;-80
2021/08/22 03:46:22;;;;;;;1.65;1.55;;;20.30;63.90;;;;;;5036201;28;20168;-80
2021/08/22 03:48:48;;;;;;;1.70;1.60;;;20.30;64.00;;;;;;5036612;28;20199;-79
2021/08/22 03:51:13;;;;;;;1.70;1.60;;;20.30;64.00;;;;;;5037138;28;20644;-80
2021/08/22 03:53:43;;;;;;;2.08;1.60;;;20.30;65.00;;;;;;5020947;28;20539;-82
2021/08/22 03:56:09;;;;;;;1.50;1.40;;;20.30;64.20;;;;;;5106436;28;20584;-80
2021/08/22 03:58:35;;;;;;;1.58;1.48;;;20.30;64.10;;;;;;5038184;28;20157;-80
2021/08/22 04:01:01;;;;;;;1.63;1.52;;;20.30;64.10;;;;;;5055932;28;20568;-80
2021/08/22 04:03:28;;;;;;;1.60;1.50;;;20.30;64.00;;;;;;5038834;28;20191;-82
2021/08/22 04:05:55;;;;;;;2.05;1.75;;;20.30;64.00;;;;;;5039741;28;20170;-80
2021/08/22 04:08:24;;;;;;;1.67;1.55;;;20.30;64.10;;;;;;5057825;28;20162;-81
2021/08/22 04:10:51;;;;;;;1.50;1.40;;;20.30;64.40;;;;;;5039936;28;20639;-80
2021/08/22 04:13:17;;;;;;;1.70;1.40;;;20.30;64.10;;;;;;5057676;28;20166;-80
2021/08/22 04:15:43;;;;;;;1.52;1.42;;;20.30;64.10;;;;;;5020306;28;20226;-80
2021/08/22 04:18:10;;;;;;;1.60;1.50;;;20.30;64.20;;;;;;5037799;28;20189;-79
2021/08/22 04:20:43;;;;;;;1.85;1.67;;;20.30;64.30;;;;;;5020846;28;20185;-80
2021/08/22 04:23:10;;;;;;;1.63;1.52;;;20.30;64.10;;;;;;5088556;28;20541;-80
2021/08/22 04:25:36;;;;;;;1.45;1.35;;;20.30;64.20;;;;;;5037056;28;20183;-81
2021/08/22 04:28:08;;;;;;;1.40;1.30;;;20.30;64.30;;;;;;5038430;28;20176;-80
2021/08/22 04:30:38;;;;;;;1.70;1.60;;;20.30;64.00;;;;;;5003819;28;20178;-79
2021/08/22 04:33:04;;;;;;;1.60;1.50;;;20.30;64.00;;;;;;5019685;28;20205;-80
2021/08/22 04:35:30;;;;;;;1.73;1.60;;;20.30;64.00;;;;;;5020504;28;20621;-79
2021/08/22 04:37:56;;;;;;;1.40;1.30;;;20.30;64.90;;;;;;5037000;28;20217;-81
2021/08/22 04:40:22;;;;;;;1.63;1.52;;;20.30;64.30;;;;;;5036974;28;20614;-80
2021/08/22 04:42:52;;;;;;;1.65;1.55;;;20.30;64.00;;;;;;5036695;28;20159;-80
2021/08/22 04:45:18;;;;;;;1.73;1.50;;;20.30;64.80;;;;;;5003016;28;20179;-81
2021/08/22 04:47:44;;;;;;;1.38;1.27;;;20.30;64.00;;;;;;5038449;28;20502;-79
2021/08/22 04:50:14;;;;;;;1.75;1.55;;;20.30;63.80;;;;;;5036906;28;20158;-80
2021/08/22 04:52:40;;;;;;;1.52;1.35;;;20.40;64.00;;;;;;5088673;28;20190;-80
2021/08/22 04:55:06;;;;;;;2.13;1.63;;;20.40;63.90;;;;;;5036741;28;20179;-80
2021/08/22 04:57:41;;;;;;;1.65;1.55;;;20.30;63.70;;;;;;5037532;28;20210;-79
2021/08/22 05:00:08;;;;;;;1.63;1.30;;;20.40;63.80;;;;;;5105336;28;20600;-81
2021/08/22 05:02:34;;;;;;;1.73;1.30;;;20.30;63.60;;;;;;5019819;28;20167;-79
2021/08/22 05:05:00;;;;;;;1.50;1.40;;;20.40;64.60;;;;;;5036543;28;20190;-81
2021/08/22 05:07:30;;;;;;;1.30;1.20;;;20.40;63.90;;;;;;5003690;28;20514;-80
2021/08/22 05:10:01;;;;;;;1.60;1.50;;;20.40;63.80;;;;;;5019749;28;20668;-79
2021/08/22 05:12:31;;;;;;;1.80;1.45;;;20.40;63.60;;;;;;5087778;28;20190;-80
2021/08/22 05:14:56;;;;;;;1.50;1.40;;;20.40;63.40;;;;;;5071392;28;20632;-79
2021/08/22 05:17:22;;;;;;;1.98;1.40;;;20.40;63.40;;;;;;5019527;28;20229;-79
2021/08/22 05:19:48;;;;;;;1.85;1.67;;;20.40;63.50;;;;;;5036996;28;20171;-79
2021/08/22 05:22:14;;;;;;;1.58;1.40;;;20.40;63.40;;;;;;5020554;28;20224;-80
2021/08/22 05:24:40;;;;;;;1.40;1.30;;;20.40;63.50;;;;;;5040222;28;20634;-79
2021/08/22 05:27:11;;;;;;;1.42;1.33;;;20.40;63.20;;;;;;5040943;28;20622;-79
2021/08/22 05:29:41;;;;;;;1.63;1.52;;;20.50;63.20;;;;;;5092085;28;20683;-79
2021/08/22 05:32:07;;;;;;;1.50;1.40;;;20.50;63.10;;;;;;5092052;28;20183;-80
2021/08/22 05:34:33;;;;;;;1.50;1.40;;;20.50;63.20;;;;;;5041275;28;20155;-79
2021/08/22 05:37:03;;;;;;;1.98;1.70;;;20.50;63.00;;;;;;5040912;28;20183;-80
2021/08/22 05:39:35;;;;;;;1.67;1.58;;;20.50;63.10;;;;;;5109059;28;20194;-80
2021/08/22 05:42:05;;;;;;;1.52;1.42;;;20.50;63.10;;;;;;5090795;28;20645;-79
2021/08/22 05:44:31;;;;;;;2.00;1.50;;;20.50;62.90;;;;;;5074758;28;20205;-79
2021/08/22 05:47:01;;;;;;;1.60;1.50;;;20.50;63.00;;;;;;5039397;28;20610;-80
2021/08/22 05:49:27;;;;;;;1.65;1.50;;;20.50;63.00;;;;;;5108918;28;20197;-80
2021/08/22 05:51:53;;;;;;;1.48;1.38;;;20.60;62.60;;;;;;5039866;28;20565;-80
2021/08/22 05:54:23;;;;;;;1.65;1.50;;;20.60;62.30;;;;;;5040439;28;20633;-81
2021/08/22 05:56:54;;;;;;;1.33;1.23;;;20.60;62.40;;;;;;5006039;28;20628;-79
2021/08/22 05:59:24;;;;;;;1.55;1.40;;;20.70;62.40;;;;;;5091241;28;20187;-81
2021/08/22 06:01:56;;;;;;;1.30;1.20;;;20.70;62.20;;;;;;5091824;28;20243;-79
2021/08/22 06:04:22;;;;;;;1.88;1.70;;;20.70;62.10;;;;;;5091447;28;20186;-80
2021/08/22 06:06:48;;;;;;;1.60;1.50;;;20.70;62.10;;;;;;5022834;28;20171;-80
2021/08/22 06:09:14;;;;;;;1.52;1.42;;;20.70;62.00;;;;;;5040652;28;20185;-80
2021/08/22 06:11:45;;;;;;;2.03;1.60;;;20.70;62.00;;;;;;5038398;28;20212;-80
2021/08/22 06:14:10;;;;;;;1.30;1.20;;;20.80;62.00;;;;;;5091873;28;20634;-81
2021/08/22 06:16:36;;;;;;;1.60;1.50;;;20.80;61.80;;;;;;5042068;28;20243;-80
2021/08/22 06:19:02;;;;;;;1.60;1.50;;;20.80;62.00;;;;;;5060533;28;20184;-80
2021/08/22 06:21:32;;;;;;;1.75;1.50;;;20.70;61.80;;;;;;5042643;28;20154;-80
2021/08/22 06:23:59;;;;;;;1.42;1.33;;;20.80;61.60;;;;;;5025920;28;20237;-79
2021/08/22 06:26:26;;;;;;;1.70;1.60;;;20.90;61.40;;;;;;5042941;28;20150;-81
2021/08/22 06:28:52;;;;;;;1.40;1.30;;;20.80;61.60;;;;;;5026322;28;20166;-82
2021/08/22 06:31:23;;;;;;;1.40;1.30;;;20.90;61.20;;;;;;5026475;28;20166;-80
2021/08/22 06:33:53;;;;;;;1.40;1.30;;;20.90;61.50;;;;;;5094273;28;20182;-79
2021/08/22 06:36:23;;;;;;;1.50;1.40;;;21.00;61.30;;;;;;5094596;28;20229;-79
2021/08/22 06:38:49;;;;;;;1.52;1.42;;;21.00;61.00;;;;;;5094256;28;20185;-80
2021/08/22 06:41:19;;;;;;;1.40;1.30;;;20.90;60.90;;;;;;5026447;28;20166;-79
2021/08/22 06:43:45;;;;;;;1.60;1.50;;;21.00;61.00;;;;;;5093807;28;20660;-79
2021/08/22 06:46:11;;;;;;;1.48;1.30;;;21.00;61.10;;;;;;5042491;28;20167;-80
2021/08/22 06:48:37;;;;;;;1.38;1.20;;;21.00;61.00;;;;;;5025378;28;20166;-82
2021/08/22 06:51:03;;;;;;;1.55;1.45;;;21.00;61.00;;;;;;5043032;28;20169;-79
2021/08/22 06:53:29;;;;;;;2.35;1.42;;;21.00;60.70;;;;;;5025760;28;20205;-79
2021/08/22 06:55:59;;;;;;;1.58;1.48;;;21.00;60.50;;;;;;5025609;28;20192;-80
2021/08/22 06:58:25;;;;;;;1.33;1.23;;;21.00;60.40;;;;;;5009482;28;20227;-79
2021/08/22 07:00:51;;;;;;;1.77;1.60;;;21.10;60.50;;;;;;5042722;28;20230;-82
2021/08/22 07:03:21;;;;;;;1.40;1.30;;;21.10;60.70;;;;;;5059765;28;20701;-80
2021/08/22 07:05:52;;;;;;;1.33;1.23;;;21.20;60.20;;;;;;5094587;28;20178;-79
2021/08/22 07:08:18;;;;;;;1.65;1.48;;;21.20;60.10;;;;;;5077390;28;20186;-81
2021/08/22 07:10:44;;;;;;;1.65;1.55;;;21.10;60.20;;;;;;5025499;28;20166;-81
2021/08/22 07:13:14;;;;;;;1.70;1.60;;;21.10;60.50;;;;;;5026616;28;20166;-79
2021/08/22 07:15:44;;;;;;;1.60;1.50;;;21.10;60.30;;;;;;5008600;28;20225;-79
2021/08/22 07:18:09;;;;;;;1.30;1.20;;;21.10;60.40;;;;;;5025105;28;20182;-79
2021/08/22 07:20:39;;;;;;;1.30;1.20;;;21.10;60.30;;;;;;5025789;28;20165;-78
2021/08/22 07:23:05;;;;;;;2.33;1.48;;;21.20;60.20;;;;;;5094046;28;20687;-81
2021/08/22 07:25:31;;;;;;;1.67;1.55;;;21.20;60.40;;;;;;5060426;28;20157;-79
2021/08/22 07:27:57;;;;;;;1.42;1.33;;;21.20;60.30;;;;;;5042272;28;20165;-79
2021/08/22 07:30:25;;;;;;;1.70;1.60;;;21.10;60.40;;;;;;5042467;28;20162;-81
2021/08/22 07:32:57;;;;;;;1.40;1.30;;;21.20;60.40;;;;;;5042571;28;20158;-80
2021/08/22 07:35:23;;;;;;;1.45;1.27;;;21.10;61.30;;;;;;5025793;28;20178;-79
2021/08/22 07:37:49;;;;;;;1.40;1.30;;;21.10;60.50;;;;;;5025598;28;20194;-79
2021/08/22 07:40:15;;;;;;;1.60;1.50;;;21.10;60.40;;;;;;5042779;28;20165;-80
2021/08/22 07:42:45;;;;;;;1.30;1.20;;;21.20;60.30;;;;;;5042400;28;20594;-79
2021/08/22 07:45:15;;;;;;;1.38;1.27;;;21.20;60.30;;;;;;5092786;28;20190;-79
2021/08/22 07:47:41;;;;;;;1.48;1.38;;;21.10;60.50;;;;;;5092599;28;20266;-80
2021/08/22 07:50:08;;;;;;;1.50;1.40;;;21.10;60.30;;;;;;5041951;28;20218;-80
2021/08/22 07:52:38;;;;;;;1.30;1.20;;;21.20;60.50;;;;;;5059997;28;20154;-80
2021/08/22 07:55:05;;;;;;;1.55;1.45;;;21.20;60.10;;;;;;5110764;28;20189;-80
2021/08/22 07:57:34;;;;;;;1.40;1.30;;;21.30;60.00;;;;;;5042025;28;20189;-80
2021/08/22 08:00:04;;;;;;;1.48;1.35;;;21.30;60.10;;;;;;5093761;28;20182;-79
2021/08/22 08:02:31;;;;;;;1.38;1.25;;;21.20;60.10;;;;;;5093162;28;20234;-79
2021/08/22 08:05:01;;;;;;;1.55;1.45;;;21.30;60.00;;;;;;5025081;28;20204;-79
2021/08/22 08:07:31;;;;;;;1.30;1.20;;;21.30;60.00;;;;;;5076901;28;20273;-80
2021/08/22 08:10:01;;;;;;;2.50;1.38;;;21.30;60.20;;;;;;5094401;28;20193;-80
2021/08/22 08:12:27;;;;;;;1.55;1.45;;;21.20;60.30;;;;;;5024349;28;20192;-79
2021/08/22 08:14:53;;;;;;;1.42;1.33;;;21.20;60.20;;;;;;5037831;28;20246;-80
2021/08/22 08:17:20;;;;;;;1.42;1.33;;;21.20;60.20;;;;;;5021736;28;20239;-80
2021/08/22 08:19:51;;;;;;;1.58;1.48;;;21.20;60.30;;;;;;5039725;28;20712;-80
2021/08/22 08:22:17;;;;;;;2.65;1.40;;;21.20;60.30;;;;;;5089849;28;20208;-79
2021/08/22 08:24:43;;;;;;;1.40;1.30;;;21.30;60.30;;;;;;5037887;28;20152;-81
2021/08/22 08:27:15;;;;;;;1.38;1.27;;;21.20;60.40;;;;;;5037518;28;20155;-79
2021/08/22 08:29:41;;;;;;;1.40;1.30;;;21.20;60.30;;;;;;5004689;28;20178;-79
2021/08/22 08:32:07;;;;;;;1.45;1.35;;;21.10;60.70;;;;;;5038831;28;20637;-79
2021/08/22 08:34:38;;;;;;;1.30;1.20;;;21.20;60.30;;;;;;5039324;28;20228;-79
2021/08/22 08:37:08;;;;;;;1.45;1.33;;;21.30;60.30;;;;;;5089927;28;20304;-79
2021/08/22 08:39:34;;;;;;;1.50;1.20;;;21.30;60.10;;;;;;5089583;28;20595;-80
2021/08/22 08:42:17;;;;;;;1.50;1.40;;;21.30;60.30;;;;;;5037508;28;20151;-79
2021/08/22 08:44:47;;;;;;;1.40;1.30;;;21.30;60.40;;;;;;5039034;28;20147;-80
2021/08/22 08:47:16;;;;;;;1.40;1.20;;;21.30;60.20;;;;;;5089765;28;20642;-79
2021/08/22 08:49:57;;;;;;;2.00;1.50;;;21.30;60.10;;;;;;5042360;28;20225;-78
2021/08/22 08:52:35;;;;;;;1.88;1.65;;;21.30;60.30;;;;;;5090932;28;20175;-79
2021/08/22 08:55:21;;;;;;;1.50;1.40;;;21.30;60.30;;;;;;5107473;28;20207;-78
2021/08/22 08:57:47;;;;;;;1.30;1.20;;;21.30;60.10;;;;;;5046021;28;20195;-78
2021/08/22 09:00:15;;;;;;;1.65;1.55;;;21.30;60.00;;;;;;5028448;28;20197;-78
2021/08/22 09:02:41;;;;;;;1.50;1.40;;;21.40;59.90;;;;;;5028589;28;20170;-79
2021/08/22 09:05:42;;;;;;;1.35;1.25;;;21.40;59.90;;;;;;5045424;28;20162;-78
2021/08/22 09:08:48;;;;;;;1.40;1.30;;;21.40;59.80;;;;;;5031213;28;20239;-78
2021/08/22 09:11:53;;;;;;;1.40;1.30;;;21.40;59.80;;;;;;5045350;28;20159;-78
2021/08/22 09:14:52;;;;;;;1.33;1.23;;;21.50;59.70;;;;;;5048271;28;20204;-79
2021/08/22 09:17:58;;;;;;;1.42;1.33;;;21.40;59.80;;;;;;5066762;28;20208;-78
2021/08/22 09:21:03;;;;;;;1.35;1.25;;;21.40;59.80;;;;;;5065395;27;20170;-78
2021/08/22 09:24:03;;;;;;;1.60;1.50;;;21.30;60.00;;;;;;5066148;28;20193;-79
2021/08/22 09:27:03;;;;;;;1.50;1.40;;;21.40;59.90;;;;;;5065721;28;20581;-78
2021/08/22 09:30:03;;;;;;;1.63;1.38;;;21.40;59.80;;;;;;5065957;28;20182;-78
2021/08/22 09:33:04;;;;;;;1.30;1.20;;;21.30;59.90;;;;;;5054024;28;20166;-79
2021/08/22 09:36:04;;;;;;;1.15;1.05;;;21.40;59.90;;;;;;5065582;28;20154;-78
2021/08/22 09:39:04;;;;;;;1.48;1.38;;;21.40;59.90;;;;;;5066062;28;20233;-78
2021/08/22 09:42:05;;;;;;;1.40;1.30;;;21.40;59.80;;;;;;5065968;28;20191;-78
2021/08/22 09:44:49;;;;;;;1.50;1.40;;;21.30;59.90;;;;;;5065302;28;20181;-78
2021/08/22 09:47:55;;;;;;;1.42;1.10;;;21.40;60.10;;;;;;5066389;28;20150;-78
2021/08/22 09:50:55;;;;;;;1.58;1.48;;;21.40;60.00;;;;;;5065400;28;20166;-78
2021/08/22 09:53:55;;;;;;;1.45;1.35;;;21.40;59.80;;;;;;5062438;28;20158;-80
2021/08/22 09:56:55;;;;;;;2.13;1.35;;;21.40;59.80;;;;;;5060938;28;20193;-80
2021/08/22 09:59:55;;;;;;;1.48;1.38;;;21.40;59.80;;;;;;5048403;28;20158;-82
2021/08/22 10:03:09;;;;;;;1.40;1.20;;;21.40;59.80;;;;;;5061368;28;20160;-82
2021/08/22 10:06:06;;;;;;;1.70;1.50;;;21.40;59.90;;;;;;5047407;28;20166;-79
2021/08/22 10:08:38;;;;;;;1.40;1.30;;;21.30;59.90;;;;;;5059677;28;20170;-80
2021/08/22 10:11:15;;;;;;;1.50;1.40;;;21.40;59.90;;;;;;5043323;28;20167;-79
2021/08/22 10:13:41;;;;;;;1.50;1.40;;;21.40;59.90;;;;;;5093454;28;20214;-80
2021/08/22 10:16:08;;;;;;;1.52;1.42;;;21.30;60.00;;;;;;5042108;28;20230;-80
2021/08/22 10:18:38;;;;;;;1.73;1.48;;;21.30;60.00;;;;;;5042786;28;20162;-79
2021/08/22 10:21:09;;;;;;;1.50;1.40;;;21.40;60.00;;;;;;5112433;28;20190;-82
2021/08/22 10:23:54;;;;;;;1.40;1.30;;;21.40;60.00;;;;;;5111806;28;20182;-80
2021/08/22 10:26:56;;;;;;;1.48;1.38;;;21.40;59.90;;;;;;5061079;28;20154;-79
2021/08/22 10:29:28;;;;;;;1.60;1.50;;;21.40;59.80;;;;;;5043332;28;20153;-81
2021/08/22 10:32:05;;;;;;;1.40;1.30;;;21.40;59.80;;;;;;5110703;28;20231;-80
2021/08/22 10:34:32;;;;;;;1.25;1.13;;;21.40;59.80;;;;;;5094388;28;20182;-80
2021/08/22 10:36:58;;;;;;;1.42;1.30;;;21.50;59.70;;;;;;5043357;28;20186;-80
2021/08/22 10:39:30;;;;;;;1.50;1.30;;;21.40;59.80;;;;;;5043889;28;20248;-80
2021/08/22 10:42:00;;;;;;;1.65;1.55;;;21.40;59.90;;;;;;5094878;28;20185;-80
2021/08/22 10:44:40;;;;;;;1.10;1.10;;;21.40;59.90;;;;;;5043264;28;20155;-80
2021/08/22 10:47:08;;;;;;;1.50;1.40;;;21.40;60.00;;;;;;5077360;28;20182;-80
2021/08/22 10:49:57;;;;;;;1.42;1.30;;;21.30;60.10;;;;;;5042571;28;20158;-79
2021/08/22 10:52:30;;;;;;;1.50;1.40;;;21.30;60.20;;;;;;5042319;28;20187;-80
2021/08/22 10:55:24;;;;;;;1.33;1.17;;;21.20;60.60;;;;;;5111708;28;20200;-79
2021/08/22 10:57:54;;;;;;;1.70;1.50;;;21.20;60.50;;;;;;5060106;28;20189;-80
2021/08/22 11:00:34;;;;;;;1.60;1.30;;;21.30;60.30;;;;;;5077231;28;20185;-80
2021/08/22 11:03:03;;;;;;;1.38;1.27;;;21.30;61.20;;;;;;5042638;28;20161;-80
2021/08/22 11:05:36;;;;;;;2.05;1.30;;;21.30;60.30;;;;;;5042501;28;20158;-81
2021/08/22 11:08:20;;;;;;;1.40;1.30;;;21.30;60.50;;;;;;5110417;28;20226;-80
2021/08/22 11:11:00;;;;;;;2.58;1.60;;;21.20;60.50;;;;;;5060018;28;20576;-80
2021/08/22 11:13:31;;;;;;;1.48;1.38;;;21.30;60.60;;;;;;5042385;28;20170;-80
2021/08/22 11:16:06;;;;;;;1.38;1.27;;;21.20;60.50;;;;;;5093095;28;20225;-81
2021/08/22 11:18:36;;;;;;;1.27;1.17;;;21.20;60.70;;;;;;5092232;28;20205;-81
2021/08/22 11:21:07;;;;;;;1.58;1.48;;;21.20;60.70;;;;;;5092714;28;20250;-81
2021/08/22 11:23:33;;;;;;;1.58;1.35;;;21.20;60.70;;;;;;5109540;28;20181;-80
2021/08/22 11:26:07;;;;;;;1.83;1.65;;;21.20;60.50;;;;;;5058714;28;20169;-81
2021/08/22 11:28:37;;;;;;;1.50;1.40;;;21.30;60.60;;;;;;5091686;28;20184;-80
2021/08/22 11:31:11;;;;;;;1.48;1.38;;;21.20;60.60;;;;;;5091564;28;20182;-80
2021/08/22 11:33:37;;;;;;;1.25;1.15;;;21.20;60.60;;;;;;5058050;28;20609;-81
2021/08/22 11:36:07;;;;;;;1.75;1.42;;;21.20;60.60;;;;;;5058620;28;20201;-81
2021/08/22 11:38:33;;;;;;;1.30;1.20;;;21.20;60.80;;;;;;5094075;28;20205;-79
2021/08/22 11:41:02;;;;;;;1.70;1.48;;;21.10;61.10;;;;;;5040781;28;20159;-80
2021/08/22 11:43:28;;;;;;;1.42;1.33;;;21.10;61.10;;;;;;5025510;28;20171;-79
2021/08/22 11:45:58;;;;;;;1.40;1.30;;;21.10;60.80;;;;;;5029419;28;20174;-78
2021/08/22 11:48:24;;;;;;;1.65;1.55;;;21.10;60.80;;;;;;5115030;28;20184;-79
2021/08/22 11:50:51;;;;;;;1.40;1.30;;;21.10;61.80;;;;;;5045903;28;20226;-78
2021/08/22 11:53:17;;;;;;;2.58;1.60;;;21.00;61.70;;;;;;5064196;28;20150;-79
2021/08/22 11:55:43;;;;;;;6.40;1.70;;;21.10;61.00;;;;;;5046211;28;20184;-79
2021/08/22 11:58:19;;;;;;;2.03;1.20;;;21.00;61.10;;;;;;5064081;28;20178;-78
2021/08/22 12:00:46;;;;;;;2.88;1.63;;;21.00;61.20;;;;;;5114244;28;20294;-79
2021/08/22 12:03:18;;;;;;;3.10;1.35;;;21.00;61.10;;;;;;5063618;28;20150;-78
2021/08/22 12:06:00;;;;;;;1.45;1.35;;;21.00;61.10;;;;;;5079548;28;20181;-79
2021/08/22 12:08:34;;;;;;;3.03;1.60;;;21.00;61.50;;;;;;5044974;28;20162;-79
2021/08/22 12:11:15;;;;;;;1.70;1.50;;;21.00;61.40;;;;;;5096284;28;20196;-79
2021/08/22 12:13:45;;;;;;;1.75;1.50;;;21.00;61.60;;;;;;5011923;28;20217;-78
2021/08/22 12:16:25;;;;;;;1.60;1.38;;;21.00;60.90;;;;;;5107657;28;20579;-81
2021/08/22 12:19:12;;;;;;;2.92;1.48;;;21.00;61.00;;;;;;5057373;28;20161;-80
2021/08/22 12:21:44;;;;;;;1.50;1.40;;;21.00;60.30;;;;;;5100292;28;20277;-82
2021/08/22 12:24:24;;;;;;;1.40;1.23;;;21.00;59.80;;;;;;5108423;28;20695;-80
2021/08/22 12:26:53;;;;;;;1.60;1.40;;;21.10;60.20;;;;;;5057110;28;20631;-81
2021/08/22 12:29:27;;;;;;;1.45;1.35;;;21.10;60.30;;;;;;5037897;28;20588;-81
2021/08/22 12:31:55;;;;;;;1.70;1.38;;;21.00;60.70;;;;;;5039122;28;20184;-80
2021/08/22 12:34:21;;;;;;;2.95;1.52;;;20.90;60.00;;;;;;5060866;28;20147;-81
2021/08/22 12:36:47;;;;;;;1.90;1.30;;;21.00;59.70;;;;;;5043744;28;20193;-81
2021/08/22 12:39:15;;;;;;;3.28;1.55;;;21.00;59.20;;;;;;5062077;28;20161;-81
2021/08/22 12:41:51;;;;;;;1.65;1.48;;;21.00;59.90;;;;;;5045386;28;20173;-81
2021/08/22 12:44:20;;;;;;;1.67;1.50;;;21.00;60.60;;;;;;5043385;28;20293;-81
2021/08/22 12:46:47;;;;;;;1.42;1.30;;;20.90;59.60;;;;;;5042677;28;20167;-80
2021/08/22 12:49:13;;;;;;;1.67;1.50;;;20.90;60.70;;;;;;5042481;28;20274;-80
2021/08/22 12:51:57;;;;;;;4.25;1.58;;;21.00;59.80;;;;;;5043246;28;20621;-81
2021/08/22 12:54:25;;;;;;;1.88;1.40;;;20.90;59.30;;;;;;5042164;28;20169;-81
2021/08/22 12:56:51;;;;;;;1.90;1.40;;;21.00;59.20;;;;;;5027091;28;20202;-79
2021/08/22 12:59:22;;;;;;;2.05;1.50;;;21.00;61.00;;;;;;5008394;28;20179;-80
2021/08/22 13:01:52;;;;;;;1.98;1.55;;;21.00;59.80;;;;;;5009189;28;20178;-80
2021/08/22 13:04:22;;;;;;;1.83;1.40;;;21.00;59.30;;;;;;5025225;28;20276;-80
2021/08/22 13:06:50;;;;;;;2.83;1.48;;;21.00;60.30;;;;;;4991688;28;20340;-80
2021/08/22 13:09:16;;;;;;;1.75;1.35;;;21.00;59.30;;;;;;5023539;28;20187;-80